sensor_id;sensor_type;location;lat;lon;timestamp;P1;durP1;ratioP1;P2;durP2;ratioP2
9892;SDS011;4985;49.092;8.542;2022-08-20T00:02:21;0.98;;;0.82;;
9892;SDS011;4985;49.092;8.542;2022-08-20T00:04:48;1.10;;;1.00;;
9892;SDS011;4985;49.092;8.542;2022-08-20T00:07:14;1.35;;;1.25;;
9892;SDS011;4985;49.092;8.542;2022-08-20T00:09:41;1.42;;;1.10;;
9892;SDS011;4985;49.092;8.542;2022-08-20T00:12:09;1.33;;;1.10;;
9892;SDS011;4985;49.092;8.542;2022-08-20T00:14:37;2.45;;;1.10;;
9892;SDS011;4985;49.092;8.542;2022-08-20T00:17:04;1.12;;;0.93;;
9892;SDS011;4985;49.092;8.542;2022-08-20T00:19:33;1.30;;;1.10;;
9892;SDS011;4985;49.092;8.542;2022-08-20T00:21:59;1.25;;;1.15;;
9892;SDS011;4985;49.092;8.542;2022-08-20T00:24:26;2.62;;;1.20;;
9892;SDS011;4985;49.092;8.542;2022-08-20T00:26:53;1.40;;;1.05;;
9892;SDS011;4985;49.092;8.542;2022-08-20T00:29:19;1.00;;;0.90;;
9892;SDS011;4985;49.092;8.542;2022-08-20T00:31:46;1.40;;;1.00;;
9892;SDS011;4985;49.092;8.542;2022-08-20T00:34:12;1.23;;;1.10;;
9892;SDS011;4985;49.092;8.542;2022-08-20T00:36:40;1.80;;;1.10;;
9892;SDS011;4985;49.092;8.542;2022-08-20T00:39:07;1.40;;;1.27;;
9892;SDS011;4985;49.092;8.542;2022-08-20T00:41:34;1.40;;;1.12;;
9892;SDS011;4985;49.092;8.542;2022-08-20T00:44:05;1.17;;;1.08;;
9892;SDS011;4985;49.092;8.542;2022-08-20T00:46:37;1.23;;;0.95;;
9892;SDS011;4985;49.092;8.542;2022-08-20T00:49:05;1.27;;;1.10;;
9892;SDS011;4985;49.092;8.542;2022-08-20T00:51:33;3.65;;;1.30;;
9892;SDS011;4985;49.092;8.542;2022-08-20T00:54:05;1.75;;;0.93;;
9892;SDS011;4985;49.092;8.542;2022-08-20T00:56:36;1.00;;;1.00;;
9892;SDS011;4985;49.092;8.542;2022-08-20T00:59:09;3.17;;;1.17;;
9892;SDS011;4985;49.092;8.542;2022-08-20T01:01:40;1.10;;;1.10;;
9892;SDS011;4985;49.092;8.542;2022-08-20T01:04:08;2.78;;;1.35;;
9892;SDS011;4985;49.092;8.542;2022-08-20T01:06:35;1.33;;;1.15;;
9892;SDS011;4985;49.092;8.542;2022-08-20T01:09:02;2.37;;;1.20;;
9892;SDS011;4985;49.092;8.542;2022-08-20T01:11:31;0.93;;;0.93;;
9892;SDS011;4985;49.092;8.542;2022-08-20T01:13:58;1.40;;;1.00;;
9892;SDS011;4985;49.092;8.542;2022-08-20T01:16:37;2.72;;;1.02;;
9892;SDS011;4985;49.092;8.542;2022-08-20T01:19:04;1.20;;;1.12;;
9892;SDS011;4985;49.092;8.542;2022-08-20T01:21:34;1.65;;;1.17;;
9892;SDS011;4985;49.092;8.542;2022-08-20T01:24:04;1.73;;;0.88;;
9892;SDS011;4985;49.092;8.542;2022-08-20T01:26:38;1.20;;;1.08;;
9892;SDS011;4985;49.092;8.542;2022-08-20T01:29:08;1.27;;;1.17;;
9892;SDS011;4985;49.092;8.542;2022-08-20T01:31:39;1.30;;;1.00;;
9892;SDS011;4985;49.092;8.542;2022-08-20T01:34:08;1.20;;;1.10;;
9892;SDS011;4985;49.092;8.542;2022-08-20T01:36:37;2.03;;;1.33;;
9892;SDS011;4985;49.092;8.542;2022-08-20T01:39:06;1.30;;;1.20;;
9892;SDS011;4985;49.092;8.542;2022-08-20T01:41:40;1.62;;;1.10;;
9892;SDS011;4985;49.092;8.542;2022-08-20T01:44:14;1.48;;;1.37;;
9892;SDS011;4985;49.092;8.542;2022-08-20T01:46:42;1.20;;;1.10;;
9892;SDS011;4985;49.092;8.542;2022-08-20T01:49:11;1.15;;;1.00;;
9892;SDS011;4985;49.092;8.542;2022-08-20T01:51:41;1.30;;;1.20;;
9892;SDS011;4985;49.092;8.542;2022-08-20T01:54:08;2.25;;;1.12;;
9892;SDS011;4985;49.092;8.542;2022-08-20T01:56:35;1.40;;;1.30;;
9892;SDS011;4985;49.092;8.542;2022-08-20T01:59:18;1.33;;;1.23;;
9892;SDS011;4985;49.092;8.542;2022-08-20T02:01:45;1.48;;;1.10;;
9892;SDS011;4985;49.092;8.542;2022-08-20T02:04:13;1.40;;;1.30;;
9892;SDS011;4985;49.092;8.542;2022-08-20T02:06:43;2.22;;;1.45;;
9892;SDS011;4985;49.092;8.542;2022-08-20T02:09:11;1.40;;;1.30;;
9892;SDS011;4985;49.092;8.542;2022-08-20T02:11:38;1.45;;;1.10;;
9892;SDS011;4985;49.092;8.542;2022-08-20T02:14:07;1.87;;;1.42;;
9892;SDS011;4985;49.092;8.542;2022-08-20T02:16:37;1.75;;;1.20;;
9892;SDS011;4985;49.092;8.542;2022-08-20T02:19:07;1.40;;;1.15;;
9892;SDS011;4985;49.092;8.542;2022-08-20T02:21:37;4.07;;;1.33;;
9892;SDS011;4985;49.092;8.542;2022-08-20T02:24:06;1.98;;;1.40;;
9892;SDS011;4985;49.092;8.542;2022-08-20T02:26:33;1.50;;;1.40;;
9892;SDS011;4985;49.092;8.542;2022-08-20T02:29:04;1.48;;;1.37;;
9892;SDS011;4985;49.092;8.542;2022-08-20T02:31:34;1.48;;;1.30;;
9892;SDS011;4985;49.092;8.542;2022-08-20T02:34:01;1.60;;;1.50;;
9892;SDS011;4985;49.092;8.542;2022-08-20T02:36:28;2.37;;;1.60;;
9892;SDS011;4985;49.092;8.542;2022-08-20T02:38:55;1.50;;;1.40;;
9892;SDS011;4985;49.092;8.542;2022-08-20T02:41:22;1.40;;;1.30;;
9892;SDS011;4985;49.092;8.542;2022-08-20T02:43:49;1.70;;;1.60;;
9892;SDS011;4985;49.092;8.542;2022-08-20T02:46:16;1.70;;;1.50;;
9892;SDS011;4985;49.092;8.542;2022-08-20T02:48:45;3.92;;;1.37;;
9892;SDS011;4985;49.092;8.542;2022-08-20T02:51:11;3.72;;;1.62;;
9892;SDS011;4985;49.092;8.542;2022-08-20T02:53:38;1.80;;;1.50;;
9892;SDS011;4985;49.092;8.542;2022-08-20T02:56:06;2.30;;;1.62;;
9892;SDS011;4985;49.092;8.542;2022-08-20T02:58:34;1.40;;;1.30;;
9892;SDS011;4985;49.092;8.542;2022-08-20T03:01:00;2.10;;;1.70;;
9892;SDS011;4985;49.092;8.542;2022-08-20T03:03:28;1.62;;;1.52;;
9892;SDS011;4985;49.092;8.542;2022-08-20T03:05:57;2.20;;;1.75;;
9892;SDS011;4985;49.092;8.542;2022-08-20T03:08:24;1.87;;;1.65;;
9892;SDS011;4985;49.092;8.542;2022-08-20T03:10:52;1.85;;;1.55;;
9892;SDS011;4985;49.092;8.542;2022-08-20T03:13:19;1.75;;;1.58;;
9892;SDS011;4985;49.092;8.542;2022-08-20T03:15:47;2.08;;;1.87;;
9892;SDS011;4985;49.092;8.542;2022-08-20T03:18:16;2.78;;;1.60;;
9892;SDS011;4985;49.092;8.542;2022-08-20T03:20:44;2.47;;;1.80;;
9892;SDS011;4985;49.092;8.542;2022-08-20T03:23:12;2.40;;;1.70;;
9892;SDS011;4985;49.092;8.542;2022-08-20T03:25:39;1.65;;;1.55;;
9892;SDS011;4985;49.092;8.542;2022-08-20T03:28:06;2.85;;;1.92;;
9892;SDS011;4985;49.092;8.542;2022-08-20T03:30:33;2.60;;;1.60;;
9892;SDS011;4985;49.092;8.542;2022-08-20T03:33:00;2.00;;;1.80;;
9892;SDS011;4985;49.092;8.542;2022-08-20T03:35:28;2.72;;;1.98;;
9892;SDS011;4985;49.092;8.542;2022-08-20T03:37:55;2.75;;;1.98;;
9892;SDS011;4985;49.092;8.542;2022-08-20T03:40:25;2.53;;;1.75;;
9892;SDS011;4985;49.092;8.542;2022-08-20T03:42:54;2.53;;;1.95;;
9892;SDS011;4985;49.092;8.542;2022-08-20T03:45:21;3.80;;;1.87;;
9892;SDS011;4985;49.092;8.542;2022-08-20T03:47:49;2.53;;;1.80;;
9892;SDS011;4985;49.092;8.542;2022-08-20T03:50:17;2.00;;;1.60;;
9892;SDS011;4985;49.092;8.542;2022-08-20T03:52:47;2.30;;;1.77;;
9892;SDS011;4985;49.092;8.542;2022-08-20T03:55:14;2.50;;;1.90;;
9892;SDS011;4985;49.092;8.542;2022-08-20T03:57:44;3.55;;;1.87;;
9892;SDS011;4985;49.092;8.542;2022-08-20T04:00:12;2.08;;;1.87;;
9892;SDS011;4985;49.092;8.542;2022-08-20T04:02:40;3.78;;;1.90;;
9892;SDS011;4985;49.092;8.542;2022-08-20T04:05:07;2.03;;;1.83;;
9892;SDS011;4985;49.092;8.542;2022-08-20T04:07:34;2.20;;;1.75;;
9892;SDS011;4985;49.092;8.542;2022-08-20T04:10:03;2.45;;;1.83;;
9892;SDS011;4985;49.092;8.542;2022-08-20T04:12:31;3.35;;;1.90;;
9892;SDS011;4985;49.092;8.542;2022-08-20T04:14:59;2.78;;;2.00;;
9892;SDS011;4985;49.092;8.542;2022-08-20T04:17:26;3.03;;;2.30;;
9892;SDS011;4985;49.092;8.542;2022-08-20T04:19:52;3.78;;;2.33;;
9892;SDS011;4985;49.092;8.542;2022-08-20T04:22:19;2.42;;;2.00;;
9892;SDS011;4985;49.092;8.542;2022-08-20T04:24:46;2.85;;;1.87;;
9892;SDS011;4985;49.092;8.542;2022-08-20T04:27:14;2.60;;;1.80;;
9892;SDS011;4985;49.092;8.542;2022-08-20T04:29:41;2.35;;;1.85;;
9892;SDS011;4985;49.092;8.542;2022-08-20T04:32:10;2.58;;;2.10;;
9892;SDS011;4985;49.092;8.542;2022-08-20T04:34:36;3.60;;;2.30;;
9892;SDS011;4985;49.092;8.542;2022-08-20T04:37:04;2.83;;;2.25;;
9892;SDS011;4985;49.092;8.542;2022-08-20T04:39:32;2.72;;;2.05;;
9892;SDS011;4985;49.092;8.542;2022-08-20T04:41:58;2.50;;;2.12;;
9892;SDS011;4985;49.092;8.542;2022-08-20T04:44:25;3.15;;;2.33;;
9892;SDS011;4985;49.092;8.542;2022-08-20T04:46:52;2.50;;;2.05;;
9892;SDS011;4985;49.092;8.542;2022-08-20T04:49:20;3.72;;;2.25;;
9892;SDS011;4985;49.092;8.542;2022-08-20T04:51:49;2.40;;;2.00;;
9892;SDS011;4985;49.092;8.542;2022-08-20T04:54:16;2.85;;;1.83;;
9892;SDS011;4985;49.092;8.542;2022-08-20T04:56:42;2.95;;;2.22;;
9892;SDS011;4985;49.092;8.542;2022-08-20T04:59:09;2.58;;;1.92;;
9892;SDS011;4985;49.092;8.542;2022-08-20T05:01:36;2.42;;;2.22;;
9892;SDS011;4985;49.092;8.542;2022-08-20T05:04:03;3.65;;;2.30;;
9892;SDS011;4985;49.092;8.542;2022-08-20T05:06:31;2.17;;;1.98;;
9892;SDS011;4985;49.092;8.542;2022-08-20T05:08:58;2.45;;;2.00;;
9892;SDS011;4985;49.092;8.542;2022-08-20T05:11:26;3.15;;;2.37;;
9892;SDS011;4985;49.092;8.542;2022-08-20T05:13:53;2.37;;;2.15;;
9892;SDS011;4985;49.092;8.542;2022-08-20T05:16:20;4.40;;;2.30;;
9892;SDS011;4985;49.092;8.542;2022-08-20T05:18:48;3.78;;;2.50;;
9892;SDS011;4985;49.092;8.542;2022-08-20T05:21:16;2.72;;;2.37;;
9892;SDS011;4985;49.092;8.542;2022-08-20T05:23:44;2.50;;;2.28;;
9892;SDS011;4985;49.092;8.542;2022-08-20T05:26:10;4.45;;;2.60;;
9892;SDS011;4985;49.092;8.542;2022-08-20T05:28:39;2.45;;;2.25;;
9892;SDS011;4985;49.092;8.542;2022-08-20T05:31:06;2.45;;;2.22;;
9892;SDS011;4985;49.092;8.542;2022-08-20T05:33:34;2.72;;;2.22;;
9892;SDS011;4985;49.092;8.542;2022-08-20T05:36:03;2.92;;;2.20;;
9892;SDS011;4985;49.092;8.542;2022-08-20T05:38:31;2.87;;;2.45;;
9892;SDS011;4985;49.092;8.542;2022-08-20T05:41:00;3.97;;;2.42;;
9892;SDS011;4985;49.092;8.542;2022-08-20T05:43:27;3.97;;;2.65;;
9892;SDS011;4985;49.092;8.542;2022-08-20T05:45:54;2.53;;;2.08;;
9892;SDS011;4985;49.092;8.542;2022-08-20T05:48:22;5.43;;;2.67;;
9892;SDS011;4985;49.092;8.542;2022-08-20T05:50:50;4.55;;;2.50;;
9892;SDS011;4985;49.092;8.542;2022-08-20T05:53:19;3.30;;;2.25;;
9892;SDS011;4985;49.092;8.542;2022-08-20T05:55:47;2.58;;;2.20;;
9892;SDS011;4985;49.092;8.542;2022-08-20T05:58:16;2.60;;;2.40;;
9892;SDS011;4985;49.092;8.542;2022-08-20T06:00:46;3.50;;;2.30;;
9892;SDS011;4985;49.092;8.542;2022-08-20T06:03:14;3.87;;;2.33;;
9892;SDS011;4985;49.092;8.542;2022-08-20T06:05:59;3.65;;;2.35;;
9892;SDS011;4985;49.092;8.542;2022-08-20T06:08:25;3.10;;;2.35;;
9892;SDS011;4985;49.092;8.542;2022-08-20T06:10:52;3.47;;;2.67;;
9892;SDS011;4985;49.092;8.542;2022-08-20T06:13:20;4.18;;;2.60;;
9892;SDS011;4985;49.092;8.542;2022-08-20T06:15:48;2.90;;;2.60;;
9892;SDS011;4985;49.092;8.542;2022-08-20T06:18:14;3.58;;;2.55;;
9892;SDS011;4985;49.092;8.542;2022-08-20T06:20:42;2.87;;;2.58;;
9892;SDS011;4985;49.092;8.542;2022-08-20T06:23:10;3.40;;;2.28;;
9892;SDS011;4985;49.092;8.542;2022-08-20T06:25:36;4.57;;;2.60;;
9892;SDS011;4985;49.092;8.542;2022-08-20T06:28:03;2.80;;;2.60;;
9892;SDS011;4985;49.092;8.542;2022-08-20T06:30:32;3.00;;;2.60;;
9892;SDS011;4985;49.092;8.542;2022-08-20T06:32:59;4.68;;;2.53;;
9892;SDS011;4985;49.092;8.542;2022-08-20T06:35:25;3.67;;;2.33;;
9892;SDS011;4985;49.092;8.542;2022-08-20T06:37:52;2.75;;;2.20;;
9892;SDS011;4985;49.092;8.542;2022-08-20T06:40:22;3.03;;;2.35;;
9892;SDS011;4985;49.092;8.542;2022-08-20T06:42:50;3.12;;;2.42;;
9892;SDS011;4985;49.092;8.542;2022-08-20T06:45:19;3.25;;;2.40;;
9892;SDS011;4985;49.092;8.542;2022-08-20T06:47:50;2.83;;;2.42;;
9892;SDS011;4985;49.092;8.542;2022-08-20T06:50:18;4.18;;;2.50;;
9892;SDS011;4985;49.092;8.542;2022-08-20T06:52:46;4.03;;;2.75;;
9892;SDS011;4985;49.092;8.542;2022-08-20T06:55:13;3.42;;;2.42;;
9892;SDS011;4985;49.092;8.542;2022-08-20T06:57:41;2.85;;;2.35;;
9892;SDS011;4985;49.092;8.542;2022-08-20T07:00:09;2.92;;;2.62;;
9892;SDS011;4985;49.092;8.542;2022-08-20T07:02:38;2.58;;;2.30;;
9892;SDS011;4985;49.092;8.542;2022-08-20T07:05:07;3.85;;;2.45;;
9892;SDS011;4985;49.092;8.542;2022-08-20T07:07:34;2.80;;;2.40;;
9892;SDS011;4985;49.092;8.542;2022-08-20T07:10:02;2.47;;;2.15;;
9892;SDS011;4985;49.092;8.542;2022-08-20T07:12:30;3.83;;;2.45;;
9892;SDS011;4985;49.092;8.542;2022-08-20T07:14:59;6.57;;;2.70;;
9892;SDS011;4985;49.092;8.542;2022-08-20T07:17:26;3.90;;;2.55;;
9892;SDS011;4985;49.092;8.542;2022-08-20T07:19:53;2.92;;;2.40;;
9892;SDS011;4985;49.092;8.542;2022-08-20T07:22:21;2.35;;;2.15;;
9892;SDS011;4985;49.092;8.542;2022-08-20T07:24:48;2.95;;;2.37;;
9892;SDS011;4985;49.092;8.542;2022-08-20T07:27:18;3.60;;;2.35;;
9892;SDS011;4985;49.092;8.542;2022-08-20T07:29:45;2.80;;;2.35;;
9892;SDS011;4985;49.092;8.542;2022-08-20T07:32:29;2.85;;;2.33;;
9892;SDS011;4985;49.092;8.542;2022-08-20T07:35:03;2.75;;;2.30;;
9892;SDS011;4985;49.092;8.542;2022-08-20T07:37:37;6.80;;;2.70;;
9892;SDS011;4985;49.092;8.542;2022-08-20T07:40:05;4.20;;;2.92;;
9892;SDS011;4985;49.092;8.542;2022-08-20T07:42:33;2.60;;;2.40;;
9892;SDS011;4985;49.092;8.542;2022-08-20T07:45:00;3.15;;;2.20;;
9892;SDS011;4985;49.092;8.542;2022-08-20T07:47:27;2.53;;;2.33;;
9892;SDS011;4985;49.092;8.542;2022-08-20T07:49:53;3.25;;;2.35;;
9892;SDS011;4985;49.092;8.542;2022-08-20T07:52:20;3.62;;;2.20;;
9892;SDS011;4985;49.092;8.542;2022-08-20T07:54:48;2.70;;;2.20;;
9892;SDS011;4985;49.092;8.542;2022-08-20T07:57:15;5.75;;;2.92;;
9892;SDS011;4985;49.092;8.542;2022-08-20T07:59:42;3.87;;;2.47;;
9892;SDS011;4985;49.092;8.542;2022-08-20T08:02:10;2.37;;;2.12;;
9892;SDS011;4985;49.092;8.542;2022-08-20T08:04:37;5.82;;;2.37;;
9892;SDS011;4985;49.092;8.542;2022-08-20T08:07:04;3.70;;;2.50;;
9892;SDS011;4985;49.092;8.542;2022-08-20T08:09:31;3.35;;;2.05;;
9892;SDS011;4985;49.092;8.542;2022-08-20T08:12:01;3.75;;;2.65;;
9892;SDS011;4985;49.092;8.542;2022-08-20T08:14:29;2.62;;;2.30;;
9892;SDS011;4985;49.092;8.542;2022-08-20T08:17:00;3.60;;;2.40;;
9892;SDS011;4985;49.092;8.542;2022-08-20T08:19:31;3.22;;;2.30;;
9892;SDS011;4985;49.092;8.542;2022-08-20T08:22:03;2.75;;;2.17;;
9892;SDS011;4985;49.092;8.542;2022-08-20T08:24:32;2.70;;;2.30;;
9892;SDS011;4985;49.092;8.542;2022-08-20T08:26:58;2.53;;;2.30;;
9892;SDS011;4985;49.092;8.542;2022-08-20T08:29:26;3.50;;;2.40;;
9892;SDS011;4985;49.092;8.542;2022-08-20T08:31:53;2.97;;;2.65;;
9892;SDS011;4985;49.092;8.542;2022-08-20T08:34:20;3.03;;;2.08;;
9892;SDS011;4985;49.092;8.542;2022-08-20T08:36:48;3.12;;;2.37;;
9892;SDS011;4985;49.092;8.542;2022-08-20T08:39:15;2.80;;;2.30;;
9892;SDS011;4985;49.092;8.542;2022-08-20T08:41:42;3.97;;;2.10;;
9892;SDS011;4985;49.092;8.542;2022-08-20T08:44:14;3.20;;;2.28;;
9892;SDS011;4985;49.092;8.542;2022-08-20T08:46:49;4.62;;;2.50;;
9892;SDS011;4985;49.092;8.542;2022-08-20T08:49:20;2.83;;;2.30;;
9892;SDS011;4985;49.092;8.542;2022-08-20T08:51:51;2.53;;;1.95;;
9892;SDS011;4985;49.092;8.542;2022-08-20T08:54:23;2.08;;;1.77;;
9892;SDS011;4985;49.092;8.542;2022-08-20T08:56:52;2.75;;;1.92;;
9892;SDS011;4985;49.092;8.542;2022-08-20T08:59:20;2.45;;;1.92;;
9892;SDS011;4985;49.092;8.542;2022-08-20T09:01:50;2.28;;;2.00;;
9892;SDS011;4985;49.092;8.542;2022-08-20T09:04:19;5.00;;;2.08;;
9892;SDS011;4985;49.092;8.542;2022-08-20T09:06:47;2.45;;;1.90;;
9892;SDS011;4985;49.092;8.542;2022-08-20T09:09:16;2.70;;;2.28;;
9892;SDS011;4985;49.092;8.542;2022-08-20T09:11:46;2.95;;;2.10;;
9892;SDS011;4985;49.092;8.542;2022-08-20T09:14:14;3.28;;;2.10;;
9892;SDS011;4985;49.092;8.542;2022-08-20T09:16:41;2.40;;;1.90;;
9892;SDS011;4985;49.092;8.542;2022-08-20T09:19:09;3.10;;;2.17;;
9892;SDS011;4985;49.092;8.542;2022-08-20T09:21:35;2.50;;;1.75;;
9892;SDS011;4985;49.092;8.542;2022-08-20T09:24:02;2.80;;;1.83;;
9892;SDS011;4985;49.092;8.542;2022-08-20T09:26:29;2.45;;;1.90;;
9892;SDS011;4985;49.092;8.542;2022-08-20T09:28:56;3.33;;;1.87;;
9892;SDS011;4985;49.092;8.542;2022-08-20T09:31:23;3.60;;;2.12;;
9892;SDS011;4985;49.092;8.542;2022-08-20T09:33:49;3.35;;;1.98;;
9892;SDS011;4985;49.092;8.542;2022-08-20T09:36:17;3.65;;;1.87;;
9892;SDS011;4985;49.092;8.542;2022-08-20T09:38:44;2.53;;;1.77;;
9892;SDS011;4985;49.092;8.542;2022-08-20T09:41:11;1.62;;;1.52;;
9892;SDS011;4985;49.092;8.542;2022-08-20T09:43:38;4.12;;;2.10;;
9892;SDS011;4985;49.092;8.542;2022-08-20T09:46:04;2.78;;;1.90;;
9892;SDS011;4985;49.092;8.542;2022-08-20T09:48:31;3.83;;;1.62;;
9892;SDS011;4985;49.092;8.542;2022-08-20T09:50:58;2.20;;;1.77;;
9892;SDS011;4985;49.092;8.542;2022-08-20T09:53:26;2.65;;;1.55;;
9892;SDS011;4985;49.092;8.542;2022-08-20T09:55:54;2.60;;;2.03;;
9892;SDS011;4985;49.092;8.542;2022-08-20T09:58:23;1.87;;;1.77;;
9892;SDS011;4985;49.092;8.542;2022-08-20T10:00:56;4.15;;;1.98;;
9892;SDS011;4985;49.092;8.542;2022-08-20T10:03:23;1.70;;;1.60;;
9892;SDS011;4985;49.092;8.542;2022-08-20T10:05:50;2.92;;;1.77;;
9892;SDS011;4985;49.092;8.542;2022-08-20T10:08:16;2.78;;;1.80;;
9892;SDS011;4985;49.092;8.542;2022-08-20T10:10:44;2.20;;;1.62;;
9892;SDS011;4985;49.092;8.542;2022-08-20T10:13:11;3.72;;;1.50;;
9892;SDS011;4985;49.092;8.542;2022-08-20T10:15:38;2.30;;;1.75;;
9892;SDS011;4985;49.092;8.542;2022-08-20T10:18:04;3.17;;;1.73;;
9892;SDS011;4985;49.092;8.542;2022-08-20T10:20:32;1.60;;;1.50;;
9892;SDS011;4985;49.092;8.542;2022-08-20T10:22:59;2.95;;;1.80;;
9892;SDS011;4985;49.092;8.542;2022-08-20T10:25:26;1.77;;;1.50;;
9892;SDS011;4985;49.092;8.542;2022-08-20T10:27:55;1.95;;;1.62;;
9892;SDS011;4985;49.092;8.542;2022-08-20T10:30:21;1.90;;;1.50;;
9892;SDS011;4985;49.092;8.542;2022-08-20T10:32:48;1.45;;;1.35;;
9892;SDS011;4985;49.092;8.542;2022-08-20T10:35:15;1.42;;;1.33;;
9892;SDS011;4985;49.092;8.542;2022-08-20T10:37:41;1.85;;;1.62;;
9892;SDS011;4985;49.092;8.542;2022-08-20T10:40:09;1.90;;;1.50;;
9892;SDS011;4985;49.092;8.542;2022-08-20T10:42:37;1.42;;;1.33;;
9892;SDS011;4985;49.092;8.542;2022-08-20T10:45:06;1.52;;;1.42;;
9892;SDS011;4985;49.092;8.542;2022-08-20T10:47:33;1.80;;;1.60;;
9892;SDS011;4985;49.092;8.542;2022-08-20T10:50:01;1.95;;;1.67;;
9892;SDS011;4985;49.092;8.542;2022-08-20T10:52:31;1.40;;;1.27;;
9892;SDS011;4985;49.092;8.542;2022-08-20T10:54:58;3.58;;;1.48;;
9892;SDS011;4985;49.092;8.542;2022-08-20T10:57:26;1.92;;;1.27;;
9892;SDS011;4985;49.092;8.542;2022-08-20T10:59:55;1.87;;;1.00;;
9892;SDS011;4985;49.092;8.542;2022-08-20T11:02:24;1.20;;;1.10;;
9892;SDS011;4985;49.092;8.542;2022-08-20T11:04:52;1.10;;;1.00;;
9892;SDS011;4985;49.092;8.542;2022-08-20T11:07:20;1.27;;;1.10;;
9892;SDS011;4985;49.092;8.542;2022-08-20T11:09:51;1.10;;;1.00;;
9892;SDS011;4985;49.092;8.542;2022-08-20T11:12:18;1.37;;;1.20;;
9892;SDS011;4985;49.092;8.542;2022-08-20T11:14:46;2.00;;;1.30;;
9892;SDS011;4985;49.092;8.542;2022-08-20T11:17:17;1.33;;;1.20;;
9892;SDS011;4985;49.092;8.542;2022-08-20T11:19:46;1.70;;;1.60;;
9892;SDS011;4985;49.092;8.542;2022-08-20T11:22:13;2.33;;;1.40;;
9892;SDS011;4985;49.092;8.542;2022-08-20T11:24:39;1.62;;;1.20;;
9892;SDS011;4985;49.092;8.542;2022-08-20T11:27:06;1.30;;;1.20;;
9892;SDS011;4985;49.092;8.542;2022-08-20T11:29:33;2.85;;;1.15;;
9892;SDS011;4985;49.092;8.542;2022-08-20T11:32:00;3.37;;;1.40;;
9892;SDS011;4985;49.092;8.542;2022-08-20T11:34:27;1.10;;;0.95;;
9892;SDS011;4985;49.092;8.542;2022-08-20T11:36:55;1.35;;;1.20;;
9892;SDS011;4985;49.092;8.542;2022-08-20T11:39:23;1.20;;;1.10;;
9892;SDS011;4985;49.092;8.542;2022-08-20T11:41:49;1.20;;;1.10;;
9892;SDS011;4985;49.092;8.542;2022-08-20T11:44:16;1.05;;;1.05;;
9892;SDS011;4985;49.092;8.542;2022-08-20T11:46:43;1.25;;;1.12;;
9892;SDS011;4985;49.092;8.542;2022-08-20T11:49:09;2.40;;;1.40;;
9892;SDS011;4985;49.092;8.542;2022-08-20T11:51:36;1.48;;;1.25;;
9892;SDS011;4985;49.092;8.542;2022-08-20T11:54:04;1.42;;;1.30;;
9892;SDS011;4985;49.092;8.542;2022-08-20T11:56:31;1.40;;;1.23;;
9892;SDS011;4985;49.092;8.542;2022-08-20T11:58:58;1.45;;;1.30;;
9892;SDS011;4985;49.092;8.542;2022-08-20T12:01:24;1.15;;;1.05;;
9892;SDS011;4985;49.092;8.542;2022-08-20T12:03:51;1.27;;;1.17;;
9892;SDS011;4985;49.092;8.542;2022-08-20T12:06:17;1.30;;;1.20;;
9892;SDS011;4985;49.092;8.542;2022-08-20T12:08:44;1.30;;;1.20;;
9892;SDS011;4985;49.092;8.542;2022-08-20T12:11:12;1.20;;;1.10;;
9892;SDS011;4985;49.092;8.542;2022-08-20T12:13:39;1.73;;;1.20;;
9892;SDS011;4985;49.092;8.542;2022-08-20T12:16:06;1.40;;;1.30;;
9892;SDS011;4985;49.092;8.542;2022-08-20T12:18:32;2.22;;;1.58;;
9892;SDS011;4985;49.092;8.542;2022-08-20T12:20:59;1.60;;;1.30;;
9892;SDS011;4985;49.092;8.542;2022-08-20T12:23:26;1.45;;;1.20;;
9892;SDS011;4985;49.092;8.542;2022-08-20T12:25:52;1.30;;;1.20;;
9892;SDS011;4985;49.092;8.542;2022-08-20T12:28:21;1.90;;;1.20;;
9892;SDS011;4985;49.092;8.542;2022-08-20T12:30:47;1.20;;;1.10;;
9892;SDS011;4985;49.092;8.542;2022-08-20T12:33:14;1.40;;;1.30;;
9892;SDS011;4985;49.092;8.542;2022-08-20T12:35:41;1.33;;;1.23;;
9892;SDS011;4985;49.092;8.542;2022-08-20T12:38:07;3.65;;;1.20;;
9892;SDS011;4985;49.092;8.542;2022-08-20T12:40:34;1.48;;;1.10;;
9892;SDS011;4985;49.092;8.542;2022-08-20T12:43:01;1.08;;;1.00;;
9892;SDS011;4985;49.092;8.542;2022-08-20T12:45:31;1.67;;;1.00;;
9892;SDS011;4985;49.092;8.542;2022-08-20T12:48:02;2.03;;;1.30;;
9892;SDS011;4985;49.092;8.542;2022-08-20T12:50:31;1.23;;;1.00;;
9892;SDS011;4985;49.092;8.542;2022-08-20T12:52:59;0.80;;;0.80;;
9892;SDS011;4985;49.092;8.542;2022-08-20T12:55:25;1.00;;;0.90;;
9892;SDS011;4985;49.092;8.542;2022-08-20T12:57:53;1.30;;;1.10;;
9892;SDS011;4985;49.092;8.542;2022-08-20T13:00:23;0.90;;;0.90;;
9892;SDS011;4985;49.092;8.542;2022-08-20T13:02:53;2.55;;;1.35;;
9892;SDS011;4985;49.092;8.542;2022-08-20T13:05:22;0.60;;;0.60;;
9892;SDS011;4985;49.092;8.542;2022-08-20T13:07:49;0.80;;;0.80;;
9892;SDS011;4985;49.092;8.542;2022-08-20T13:10:18;0.77;;;0.77;;
9892;SDS011;4985;49.092;8.542;2022-08-20T13:12:46;0.80;;;0.80;;
9892;SDS011;4985;49.092;8.542;2022-08-20T13:15:13;1.00;;;0.90;;
9892;SDS011;4985;49.092;8.542;2022-08-20T13:17:39;0.82;;;0.82;;
9892;SDS011;4985;49.092;8.542;2022-08-20T13:20:09;0.88;;;0.88;;
9892;SDS011;4985;49.092;8.542;2022-08-20T13:22:39;0.60;;;0.60;;
9892;SDS011;4985;49.092;8.542;2022-08-20T13:25:06;0.80;;;0.80;;
9892;SDS011;4985;49.092;8.542;2022-08-20T13:27:34;0.80;;;0.80;;
9892;SDS011;4985;49.092;8.542;2022-08-20T13:30:04;0.62;;;0.62;;
9892;SDS011;4985;49.092;8.542;2022-08-20T13:32:32;0.80;;;0.80;;
9892;SDS011;4985;49.092;8.542;2022-08-20T13:34:58;1.35;;;0.65;;
9892;SDS011;4985;49.092;8.542;2022-08-20T13:37:27;0.60;;;0.60;;
9892;SDS011;4985;49.092;8.542;2022-08-20T13:39:54;1.23;;;1.00;;
9892;SDS011;4985;49.092;8.542;2022-08-20T13:42:22;1.12;;;0.82;;
9892;SDS011;4985;49.092;8.542;2022-08-20T13:44:49;1.67;;;0.90;;
9892;SDS011;4985;49.092;8.542;2022-08-20T13:47:17;1.00;;;0.80;;
9892;SDS011;4985;49.092;8.542;2022-08-20T13:49:45;0.70;;;0.70;;
9892;SDS011;4985;49.092;8.542;2022-08-20T13:52:13;1.60;;;1.00;;
9892;SDS011;4985;49.092;8.542;2022-08-20T13:54:41;1.15;;;0.80;;
9892;SDS011;4985;49.092;8.542;2022-08-20T13:57:09;1.23;;;0.85;;
9892;SDS011;4985;49.092;8.542;2022-08-20T13:59:37;0.98;;;0.85;;
9892;SDS011;4985;49.092;8.542;2022-08-20T14:02:04;2.22;;;0.90;;
9892;SDS011;4985;49.092;8.542;2022-08-20T14:04:33;2.33;;;1.08;;
9892;SDS011;4985;49.092;8.542;2022-08-20T14:07:07;1.05;;;0.90;;
9892;SDS011;4985;49.092;8.542;2022-08-20T14:09:35;2.70;;;1.42;;
9892;SDS011;4985;49.092;8.542;2022-08-20T14:12:05;1.52;;;0.98;;
9892;SDS011;4985;49.092;8.542;2022-08-20T14:14:32;0.90;;;0.90;;
9892;SDS011;4985;49.092;8.542;2022-08-20T14:16:59;1.05;;;0.93;;
9892;SDS011;4985;49.092;8.542;2022-08-20T14:19:36;1.60;;;1.30;;
9892;SDS011;4985;49.092;8.542;2022-08-20T14:22:03;3.17;;;1.10;;
9892;SDS011;4985;49.092;8.542;2022-08-20T14:24:29;1.23;;;1.12;;
9892;SDS011;4985;49.092;8.542;2022-08-20T14:26:56;2.60;;;1.10;;
9892;SDS011;4985;49.092;8.542;2022-08-20T14:29:24;1.48;;;0.95;;
9892;SDS011;4985;49.092;8.542;2022-08-20T14:31:51;1.27;;;0.98;;
9892;SDS011;4985;49.092;8.542;2022-08-20T14:34:17;2.83;;;1.27;;
9892;SDS011;4985;49.092;8.542;2022-08-20T14:36:44;1.10;;;1.00;;
9892;SDS011;4985;49.092;8.542;2022-08-20T14:39:10;1.23;;;1.10;;
9892;SDS011;4985;49.092;8.542;2022-08-20T14:41:37;1.33;;;1.00;;
9892;SDS011;4985;49.092;8.542;2022-08-20T14:44:03;1.02;;;0.93;;
9892;SDS011;4985;49.092;8.542;2022-08-20T14:46:31;1.48;;;1.00;;
9892;SDS011;4985;49.092;8.542;2022-08-20T14:48:58;1.92;;;1.17;;
9892;SDS011;4985;49.092;8.542;2022-08-20T14:51:25;2.12;;;1.05;;
9892;SDS011;4985;49.092;8.542;2022-08-20T14:53:51;1.85;;;1.40;;
9892;SDS011;4985;49.092;8.542;2022-08-20T14:56:18;3.25;;;1.20;;
9892;SDS011;4985;49.092;8.542;2022-08-20T14:58:45;2.00;;;1.02;;
9892;SDS011;4985;49.092;8.542;2022-08-20T15:01:11;1.10;;;1.00;;
9892;SDS011;4985;49.092;8.542;2022-08-20T15:03:39;1.45;;;1.23;;
9892;SDS011;4985;49.092;8.542;2022-08-20T15:06:06;1.45;;;1.15;;
9892;SDS011;4985;49.092;8.542;2022-08-20T15:08:33;1.90;;;1.40;;
9892;SDS011;4985;49.092;8.542;2022-08-20T15:10:59;1.12;;;1.00;;
9892;SDS011;4985;49.092;8.542;2022-08-20T15:13:26;2.22;;;1.50;;
9892;SDS011;4985;49.092;8.542;2022-08-20T15:15:54;1.20;;;1.10;;
9892;SDS011;4985;49.092;8.542;2022-08-20T15:18:21;2.35;;;1.33;;
9892;SDS011;4985;49.092;8.542;2022-08-20T15:20:50;2.80;;;1.50;;